createdAt,value
2022-07-28T00:00:12.857Z,7.05
2022-07-28T00:00:35.789Z,7.68
2022-07-28T00:00:57.592Z,11.15
2022-07-28T00:01:20.252Z,10.32
2022-07-28T00:01:42.179Z,8.57
2022-07-28T00:02:05.928Z,8.77
2022-07-28T00:02:28.788Z,8.00
2022-07-28T00:02:51.396Z,8.57
2022-07-28T00:03:13.409Z,8.77
2022-07-28T00:03:35.384Z,9.00
2022-07-28T00:03:58.625Z,9.02
2022-07-28T00:04:20.395Z,8.05
2022-07-28T00:04:42.194Z,9.65
2022-07-28T00:05:06.841Z,7.63
2022-07-28T00:05:30.019Z,10.02
2022-07-28T00:05:53.078Z,9.52
2022-07-28T00:06:14.833Z,7.45
2022-07-28T00:06:36.573Z,9.25
2022-07-28T00:06:58.595Z,8.55
2022-07-28T00:07:22.871Z,7.60
2022-07-28T00:07:45.352Z,6.88
2022-07-28T00:08:08.006Z,9.60
2022-07-28T00:08:30.105Z,10.38
2022-07-28T00:08:51.975Z,7.75
2022-07-28T00:09:13.875Z,8.52
2022-07-28T00:09:35.822Z,9.90
2022-07-28T00:10:00.525Z,8.18
2022-07-28T00:10:22.853Z,9.40
2022-07-28T00:10:44.811Z,8.57
2022-07-28T00:11:06.666Z,9.80
2022-07-28T00:11:28.506Z,9.48
2022-07-28T00:11:54.676Z,9.65
2022-07-28T00:12:16.904Z,11.65
2022-07-28T00:12:39.589Z,7.85
2022-07-28T00:13:01.804Z,7.28
2022-07-28T00:13:25.578Z,10.82
2022-07-28T00:13:47.382Z,12.23
2022-07-28T00:14:11.068Z,11.60
2022-07-28T00:14:33.347Z,7.78
2022-07-28T00:14:55.262Z,8.18
2022-07-28T00:15:17.090Z,8.48
2022-07-28T00:15:38.924Z,10.05
2022-07-28T00:16:00.818Z,9.18
2022-07-28T00:16:22.874Z,8.95
2022-07-28T00:16:44.788Z,9.40
2022-07-28T00:17:06.666Z,9.23
2022-07-28T00:17:28.463Z,7.70
2022-07-28T00:17:50.349Z,7.90
2022-07-28T00:18:12.088Z,9.10
2022-07-28T00:18:34.059Z,8.18
2022-07-28T00:18:55.894Z,9.60
2022-07-28T00:19:17.907Z,9.70
2022-07-28T00:19:39.644Z,8.23
2022-07-28T00:20:01.462Z,10.00
2022-07-28T00:20:23.361Z,8.37
2022-07-28T00:20:45.077Z,7.80
2022-07-28T00:21:07.233Z,8.90
2022-07-28T00:21:29.574Z,8.85
2022-07-28T00:21:51.361Z,7.57
2022-07-28T00:22:13.414Z,9.63
2022-07-28T00:22:35.385Z,8.38
2022-07-28T00:22:57.254Z,9.05
2022-07-28T00:23:18.996Z,8.10
2022-07-28T00:23:40.783Z,9.77
2022-07-28T00:24:02.606Z,8.70
2022-07-28T00:24:24.482Z,8.18
2022-07-28T00:24:49.233Z,9.10
2022-07-28T00:25:12.350Z,8.85
2022-07-28T00:25:34.254Z,8.00
2022-07-28T00:25:56.079Z,7.68
2022-07-28T00:26:17.884Z,9.38
2022-07-28T00:26:39.782Z,7.60
2022-07-28T00:27:01.849Z,8.43
2022-07-28T00:27:24.993Z,9.02
2022-07-28T00:27:46.874Z,10.88
2022-07-28T00:28:08.878Z,10.10
2022-07-28T00:28:31.688Z,10.68
2022-07-28T00:28:53.456Z,9.15
2022-07-28T00:29:15.290Z,9.38
2022-07-28T00:29:49.166Z,10.43
2022-07-28T00:30:12.520Z,8.98
2022-07-28T00:30:34.667Z,8.43
2022-07-28T00:30:56.768Z,8.17
2022-07-28T00:31:18.764Z,7.77
2022-07-28T00:31:40.687Z,7.85
2022-07-28T00:32:02.558Z,8.65
2022-07-28T00:32:24.404Z,9.88
2022-07-28T00:32:46.783Z,9.38
2022-07-28T00:33:08.850Z,8.40
2022-07-28T00:33:30.692Z,7.65
2022-07-28T00:33:52.538Z,9.05
2022-07-28T00:34:14.805Z,10.13
2022-07-28T00:34:37.033Z,7.32
2022-07-28T00:35:02.606Z,9.60
2022-07-28T00:35:31.096Z,8.05
2022-07-28T00:35:53.608Z,7.63
2022-07-28T00:36:16.330Z,9.13
2022-07-28T00:36:38.545Z,8.05
2022-07-28T00:37:00.764Z,7.78
2022-07-28T00:37:28.501Z,6.75
2022-07-28T00:37:50.335Z,7.90
2022-07-28T00:38:13.199Z,7.55
2022-07-28T00:38:35.630Z,8.57
2022-07-28T00:38:57.517Z,9.88
2022-07-28T00:39:19.299Z,10.80
2022-07-28T00:39:41.083Z,9.25
2022-07-28T00:40:03.408Z,10.05
2022-07-28T00:40:45.413Z,9.73
2022-07-28T00:41:13.653Z,9.77
2022-07-28T00:41:36.480Z,8.40
2022-07-28T00:41:58.347Z,8.75
2022-07-28T00:42:21.325Z,8.18
2022-07-28T00:42:43.323Z,8.35
2022-07-28T00:43:05.069Z,9.38
2022-07-28T00:43:26.803Z,8.68
2022-07-28T00:43:50.618Z,8.95
2022-07-28T00:44:13.008Z,9.68
2022-07-28T00:44:35.158Z,9.80
2022-07-28T00:44:57.281Z,8.50
2022-07-28T00:45:19.033Z,8.00
2022-07-28T00:45:40.910Z,8.40
2022-07-28T00:46:04.297Z,8.00
2022-07-28T00:46:26.164Z,7.50
2022-07-28T00:46:48.525Z,11.55
2022-07-28T00:47:11.830Z,10.32
2022-07-28T00:47:34.238Z,8.70
2022-07-28T00:47:57.404Z,10.32
2022-07-28T00:48:19.598Z,8.68
2022-07-28T00:48:45.503Z,9.25
2022-07-28T00:49:07.832Z,10.32
2022-07-28T00:49:29.823Z,9.07
2022-07-28T00:49:51.621Z,9.75
2022-07-28T00:50:13.451Z,9.23
2022-07-28T00:50:36.104Z,10.63
2022-07-28T00:50:58.007Z,9.98
2022-07-28T00:51:25.241Z,9.35
2022-07-28T00:51:48.199Z,8.95
2022-07-28T00:52:12.094Z,9.45
2022-07-28T00:52:34.371Z,8.98
2022-07-28T00:52:56.267Z,8.05
2022-07-28T00:53:18.726Z,10.30
2022-07-28T00:53:40.715Z,8.52
2022-07-28T00:54:02.821Z,9.07
2022-07-28T00:54:24.613Z,10.20
2022-07-28T00:54:46.530Z,9.02
2022-07-28T00:55:08.825Z,9.68
2022-07-28T00:55:30.621Z,7.95
2022-07-28T00:56:05.388Z,9.73
2022-07-28T00:56:28.687Z,8.20
2022-07-28T00:56:50.452Z,7.72
2022-07-28T00:57:12.328Z,8.20
2022-07-28T00:57:34.461Z,8.43
2022-07-28T00:57:56.325Z,9.13
2022-07-28T00:58:18.738Z,7.88
2022-07-28T00:58:40.895Z,10.13
2022-07-28T00:59:03.213Z,8.15
2022-07-28T00:59:26.370Z,8.80
2022-07-28T00:59:48.143Z,9.10
2022-07-28T01:00:10.910Z,7.35
2022-07-28T01:00:32.856Z,7.32
2022-07-28T01:00:55.230Z,9.43
2022-07-28T01:01:20.804Z,11.60
2022-07-28T01:01:42.773Z,8.77
2022-07-28T01:02:05.251Z,9.48
2022-07-28T01:02:27.310Z,8.23
2022-07-28T01:02:50.739Z,8.40
2022-07-28T01:03:12.847Z,9.02
2022-07-28T01:03:40.741Z,7.45
2022-07-28T01:04:03.599Z,8.00
2022-07-28T01:04:25.819Z,9.18
2022-07-28T01:04:49.240Z,11.60
2022-07-28T01:05:11.668Z,8.55
2022-07-28T01:05:59.869Z,9.70
2022-07-28T01:06:36.827Z,9.25
2022-07-28T01:07:26.358Z,8.73
2022-07-28T01:08:05.939Z,9.32
2022-07-28T01:08:37.787Z,9.38
2022-07-28T01:09:08.434Z,8.45
2022-07-28T01:09:42.384Z,8.35
2022-07-28T01:10:16.750Z,8.75
2022-07-28T01:11:21.453Z,6.88
2022-07-28T01:11:55.279Z,8.35
2022-07-28T01:12:42.188Z,7.88
2022-07-28T01:13:22.239Z,7.60
2022-07-28T01:14:10.974Z,8.05
2022-07-28T01:14:51.053Z,10.45
2022-07-28T01:15:41.343Z,7.88
2022-07-28T01:16:06.117Z,7.30
2022-07-28T01:16:28.638Z,8.55
2022-07-28T01:16:59.433Z,7.85
2022-07-28T01:17:37.299Z,6.75
2022-07-28T01:18:05.544Z,6.55
2022-07-28T01:18:31.860Z,8.75
2022-07-28T01:19:15.429Z,6.75
2022-07-28T01:20:09.219Z,6.47
2022-07-28T01:20:42.367Z,8.82
2022-07-28T01:21:10.758Z,9.52
2022-07-28T01:21:35.783Z,10.27
2022-07-28T01:22:00.623Z,7.63
2022-07-28T01:22:25.697Z,6.85
2022-07-28T01:23:26.613Z,8.20
2022-07-28T01:24:13.007Z,6.95
2022-07-28T01:25:16.461Z,8.75
2022-07-28T01:26:15.922Z,8.35
2022-07-28T01:26:55.939Z,6.63
2022-07-28T01:27:48.443Z,7.90
2022-07-28T01:28:22.740Z,11.75
2022-07-28T01:28:59.541Z,9.10
2022-07-28T01:29:42.221Z,8.93
2022-07-28T01:30:22.812Z,9.55
2022-07-28T01:30:58.785Z,9.05
2022-07-28T01:31:25.732Z,8.75
2022-07-28T01:31:53.645Z,8.57
2022-07-28T01:32:25.983Z,8.20
2022-07-28T01:32:58.216Z,10.25
2022-07-28T01:33:35.127Z,8.75
2022-07-28T01:34:05.569Z,8.45
2022-07-28T01:34:34.685Z,9.80
2022-07-28T01:35:07.939Z,8.90
2022-07-28T01:35:33.522Z,9.77
2022-07-28T01:36:02.654Z,10.38
2022-07-28T01:36:33.413Z,9.85
2022-07-28T01:37:06.285Z,10.63
2022-07-28T01:37:32.296Z,8.77
2022-07-28T01:37:57.765Z,7.75
2022-07-28T01:38:22.951Z,8.10
2022-07-28T01:38:46.421Z,12.98
2022-07-28T01:39:09.256Z,9.52
2022-07-28T01:39:36.011Z,9.48
2022-07-28T01:40:03.246Z,11.82
2022-07-28T01:40:29.570Z,9.43
2022-07-28T01:40:53.608Z,8.98
2022-07-28T01:41:19.605Z,8.18
2022-07-28T01:41:44.229Z,8.02
2022-07-28T01:42:07.557Z,9.43
2022-07-28T01:42:38.602Z,10.23
2022-07-28T01:43:04.143Z,8.80
2022-07-28T01:43:28.872Z,9.85
2022-07-28T01:44:04.952Z,9.27
2022-07-28T01:44:28.150Z,9.27
2022-07-28T01:44:53.452Z,8.15
2022-07-28T01:45:16.800Z,9.30
2022-07-28T01:45:41.139Z,7.95
2022-07-28T01:46:03.943Z,8.85
2022-07-28T01:46:27.223Z,8.60
2022-07-28T01:46:50.370Z,8.95
2022-07-28T01:47:13.229Z,9.57
2022-07-28T01:47:37.314Z,8.68
2022-07-28T01:48:01.141Z,8.77
2022-07-28T01:48:25.005Z,8.38
2022-07-28T01:48:49.248Z,9.40
2022-07-28T01:49:12.542Z,10.23
2022-07-28T01:49:36.864Z,8.55
2022-07-28T01:50:06.527Z,8.07
2022-07-28T01:50:29.197Z,9.43
2022-07-28T01:50:53.354Z,8.27
2022-07-28T01:51:16.652Z,8.15
2022-07-28T01:51:39.187Z,9.73
2022-07-28T01:52:02.833Z,8.45
2022-07-28T01:52:28.360Z,8.95
2022-07-28T01:52:51.468Z,7.82
2022-07-28T01:53:15.211Z,8.90
2022-07-28T01:53:40.082Z,10.85
2022-07-28T01:54:03.046Z,10.10
2022-07-28T01:54:28.477Z,7.32
2022-07-28T01:54:51.998Z,11.63
2022-07-28T01:55:14.907Z,8.85
2022-07-28T01:55:38.391Z,8.80
2022-07-28T01:56:01.766Z,8.20
2022-07-28T01:56:26.381Z,11.27
2022-07-28T01:56:51.746Z,11.60
2022-07-28T01:57:16.848Z,11.15
2022-07-28T01:57:40.095Z,9.38
2022-07-28T01:58:03.456Z,8.60
2022-07-28T01:58:26.654Z,7.55
2022-07-28T01:58:50.598Z,9.55
2022-07-28T01:59:13.540Z,9.73
2022-07-28T01:59:38.320Z,8.27
2022-07-28T02:00:01.841Z,8.48
2022-07-28T02:00:26.129Z,12.32
2022-07-28T02:00:51.344Z,9.00
2022-07-28T02:01:16.337Z,8.65
2022-07-28T02:01:44.529Z,8.80
2022-07-28T02:02:07.712Z,7.85
2022-07-28T02:02:32.517Z,9.20
2022-07-28T02:02:57.040Z,9.13
2022-07-28T02:03:21.441Z,8.57
2022-07-28T02:03:44.874Z,8.02
2022-07-28T02:04:09.664Z,9.75
2022-07-28T02:04:34.076Z,12.15
2022-07-28T02:04:58.379Z,11.25
2022-07-28T02:05:22.265Z,10.13
2022-07-28T02:05:45.925Z,9.70
2022-07-28T02:06:08.922Z,9.80
2022-07-28T02:06:32.205Z,9.95
2022-07-28T02:06:55.615Z,7.85
2022-07-28T02:07:23.151Z,10.05
2022-07-28T02:07:46.605Z,8.98
2022-07-28T02:08:09.684Z,7.70
2022-07-28T02:08:33.467Z,9.25
2022-07-28T02:08:56.761Z,10.15
2022-07-28T02:09:21.179Z,9.10
2022-07-28T02:09:45.861Z,8.45
2022-07-28T02:10:09.561Z,8.93
2022-07-28T02:10:33.013Z,11.45
2022-07-28T02:11:15.927Z,9.75
2022-07-28T02:11:40.983Z,8.45
2022-07-28T02:12:04.824Z,8.70
2022-07-28T02:12:28.119Z,9.68
2022-07-28T02:12:51.705Z,9.25
2022-07-28T02:13:13.634Z,8.73
2022-07-28T02:13:36.372Z,9.15
2022-07-28T02:13:59.464Z,9.50
2022-07-28T02:14:24.610Z,9.27
2022-07-28T02:14:51.556Z,10.75
2022-07-28T02:15:15.010Z,8.48
2022-07-28T02:15:38.802Z,8.38
2022-07-28T02:16:02.505Z,7.80
2022-07-28T02:16:27.772Z,9.23
2022-07-28T02:17:02.929Z,8.05
2022-07-28T02:17:31.983Z,8.98
2022-07-28T02:17:55.150Z,9.32
2022-07-28T02:18:17.038Z,9.35
2022-07-28T02:18:40.505Z,10.02
2022-07-28T02:19:04.082Z,12.00
2022-07-28T02:19:27.995Z,9.95
2022-07-28T02:19:51.680Z,9.75
2022-07-28T02:20:14.914Z,10.30
2022-07-28T02:20:37.851Z,9.23
2022-07-28T02:21:01.556Z,10.02
2022-07-28T02:21:25.526Z,10.20
2022-07-28T02:21:48.828Z,10.75
2022-07-28T02:22:12.149Z,9.68
2022-07-28T02:22:35.082Z,9.80
2022-07-28T02:22:58.673Z,8.10
2022-07-28T02:23:24.033Z,7.93
2022-07-28T02:23:48.984Z,8.55
2022-07-28T02:24:13.450Z,9.80
2022-07-28T02:24:36.776Z,10.70
2022-07-28T02:24:59.065Z,9.93
2022-07-28T02:25:21.923Z,10.90
2022-07-28T02:25:44.567Z,10.15
2022-07-28T02:26:12.070Z,8.15
2022-07-28T02:26:37.482Z,9.98
2022-07-28T02:27:09.973Z,9.85
2022-07-28T02:27:48.385Z,10.68
2022-07-28T02:28:12.101Z,10.63
2022-07-28T02:28:34.997Z,9.60
2022-07-28T02:29:00.072Z,9.65
2022-07-28T02:29:49.357Z,8.90
2022-07-28T02:30:38.437Z,8.73
2022-07-28T02:31:10.970Z,9.17
2022-07-28T02:31:54.035Z,9.23
2022-07-28T02:32:27.753Z,9.32
2022-07-28T02:33:01.773Z,7.93
2022-07-28T02:33:57.778Z,7.80
2022-07-28T02:34:11.226Z,9.75
2022-07-28T02:34:37.816Z,11.15
2022-07-28T02:35:19.547Z,9.38
2022-07-28T02:35:48.976Z,9.98
2022-07-28T02:36:20.934Z,10.93
2022-07-28T02:36:49.692Z,9.57
2022-07-28T02:37:12.426Z,8.63
2022-07-28T02:37:38.821Z,8.67
2022-07-28T02:38:10.456Z,9.20
2022-07-28T02:38:37.849Z,8.05
2022-07-28T02:39:06.567Z,9.85
2022-07-28T02:39:42.558Z,9.00
2022-07-28T02:40:06.415Z,8.38
2022-07-28T02:40:36.382Z,10.45
2022-07-28T02:41:08.372Z,10.18
2022-07-28T02:41:38.399Z,10.48
2022-07-28T02:42:13.214Z,8.40
2022-07-28T02:42:36.802Z,9.13
2022-07-28T02:42:59.546Z,8.38
2022-07-28T02:43:50.013Z,7.97
2022-07-28T02:44:20.113Z,10.75
2022-07-28T02:44:47.051Z,9.90
2022-07-28T02:45:11.956Z,10.93
2022-07-28T02:45:35.953Z,8.88
2022-07-28T02:46:02.589Z,8.02
2022-07-28T02:46:29.181Z,9.02
2022-07-28T02:46:53.732Z,8.80
2022-07-28T02:47:24.196Z,9.13
2022-07-28T02:47:50.158Z,10.13
2022-07-28T02:48:15.428Z,10.07
2022-07-28T02:48:39.109Z,9.50
2022-07-28T02:49:07.123Z,9.00
2022-07-28T02:49:32.707Z,8.50
2022-07-28T02:49:57.543Z,9.88
2022-07-28T02:50:24.522Z,10.65
2022-07-28T02:50:47.267Z,9.43
2022-07-28T02:51:10.907Z,8.83
2022-07-28T02:51:34.749Z,10.27
2022-07-28T02:51:58.136Z,9.50
2022-07-28T02:52:24.032Z,8.20
2022-07-28T02:52:47.181Z,10.25
2022-07-28T02:53:15.281Z,10.63
2022-07-28T02:53:38.035Z,9.43
2022-07-28T02:54:00.781Z,10.73
2022-07-28T02:54:25.747Z,9.75
2022-07-28T02:54:48.918Z,9.75
2022-07-28T02:55:15.120Z,8.43
2022-07-28T02:55:39.486Z,11.52
2022-07-28T02:56:02.337Z,9.80
2022-07-28T02:56:25.288Z,11.52
2022-07-28T02:56:53.197Z,10.18
2022-07-28T02:57:18.520Z,10.55
2022-07-28T02:57:41.956Z,10.25
2022-07-28T02:58:08.071Z,9.80
2022-07-28T02:58:32.311Z,10.00
2022-07-28T02:58:55.019Z,9.82
2022-07-28T02:59:19.272Z,9.05
2022-07-28T02:59:42.434Z,9.45
2022-07-28T03:00:04.823Z,10.10
2022-07-28T03:00:27.300Z,8.70
2022-07-28T03:00:53.478Z,10.35
2022-07-28T03:01:18.920Z,8.85
2022-07-28T03:01:43.603Z,10.63
2022-07-28T03:02:08.034Z,10.68
2022-07-28T03:02:33.404Z,9.23
2022-07-28T03:02:56.417Z,10.25
2022-07-28T03:03:18.805Z,8.48
2022-07-28T03:03:44.068Z,10.23
2022-07-28T03:04:06.712Z,9.60
2022-07-28T03:04:47.804Z,9.48
2022-07-28T03:05:11.650Z,9.20
2022-07-28T03:05:34.024Z,8.77
2022-07-28T03:05:56.021Z,8.98
2022-07-28T03:06:18.724Z,10.88
2022-07-28T03:06:48.346Z,10.32
2022-07-28T03:07:11.357Z,12.18
2022-07-28T03:07:36.364Z,11.07
2022-07-28T03:08:09.000Z,10.57
2022-07-28T03:08:31.912Z,9.10
2022-07-28T03:08:53.807Z,10.18
2022-07-28T03:09:15.789Z,8.37
2022-07-28T03:09:43.776Z,7.85
2022-07-28T03:10:05.933Z,9.60
2022-07-28T03:10:33.120Z,8.90
2022-07-28T03:11:09.869Z,9.18
2022-07-28T03:11:31.662Z,9.27
2022-07-28T03:11:53.566Z,10.70
2022-07-28T03:12:15.456Z,9.32
2022-07-28T03:12:37.221Z,9.40
2022-07-28T03:13:00.399Z,12.20
2022-07-28T03:13:22.169Z,11.75
2022-07-28T03:13:45.419Z,8.18
2022-07-28T03:14:07.179Z,7.15
2022-07-28T03:14:28.949Z,8.40
2022-07-28T03:14:51.293Z,8.77
2022-07-28T03:15:13.633Z,9.07
2022-07-28T03:15:37.043Z,9.05
2022-07-28T03:15:59.357Z,7.63
2022-07-28T03:16:21.232Z,8.40
2022-07-28T03:16:44.862Z,7.82
2022-07-28T03:17:07.520Z,10.40
2022-07-28T03:17:29.341Z,9.57
2022-07-28T03:17:51.409Z,9.57
2022-07-28T03:18:13.281Z,10.40
2022-07-28T03:18:35.319Z,9.52
2022-07-28T03:18:57.137Z,7.50
2022-07-28T03:19:19.128Z,8.73
2022-07-28T03:19:41.212Z,8.35
2022-07-28T03:20:03.252Z,7.30
2022-07-28T03:20:27.795Z,9.75
2022-07-28T03:20:49.574Z,9.15
2022-07-28T03:21:11.736Z,8.65
2022-07-28T03:21:33.727Z,8.50
2022-07-28T03:21:55.865Z,8.20
2022-07-28T03:22:18.024Z,6.95
2022-07-28T03:22:40.296Z,7.88
2022-07-28T03:23:02.416Z,8.65
2022-07-28T03:23:47.902Z,9.55
2022-07-28T03:24:11.625Z,9.63
2022-07-28T03:24:38.788Z,7.90
2022-07-28T03:25:02.750Z,7.63
2022-07-28T03:25:27.957Z,8.90
2022-07-28T03:25:54.011Z,10.82
2022-07-28T03:26:40.881Z,10.43
2022-07-28T03:27:22.739Z,8.73
2022-07-28T03:27:48.395Z,8.73
2022-07-28T03:28:15.039Z,7.95
2022-07-28T03:28:37.952Z,10.10
2022-07-28T03:29:00.532Z,9.13
2022-07-28T03:29:24.388Z,7.85
2022-07-28T03:30:15.233Z,9.27
2022-07-28T03:30:42.985Z,7.82
2022-07-28T03:31:09.736Z,6.95
2022-07-28T03:31:33.141Z,7.70
2022-07-28T03:31:56.562Z,9.75
2022-07-28T03:32:24.041Z,8.20
2022-07-28T03:32:53.697Z,8.65
2022-07-28T03:33:16.014Z,9.40
2022-07-28T03:33:38.757Z,7.97
2022-07-28T03:34:00.977Z,8.13
2022-07-28T03:34:23.365Z,8.43
2022-07-28T03:34:45.266Z,6.50
2022-07-28T03:35:08.014Z,8.05
2022-07-28T03:35:32.725Z,6.88
2022-07-28T03:35:58.097Z,6.63
2022-07-28T03:36:26.268Z,8.80
2022-07-28T03:36:54.130Z,9.23
2022-07-28T03:37:21.862Z,6.40
2022-07-28T03:38:02.520Z,6.93
2022-07-28T03:38:28.823Z,9.43
2022-07-28T03:39:01.921Z,8.38
2022-07-28T03:39:26.743Z,7.70
2022-07-28T03:39:57.909Z,7.10
2022-07-28T03:40:20.804Z,10.13
2022-07-28T03:40:46.145Z,9.65
2022-07-28T03:41:10.294Z,8.90
2022-07-28T03:41:34.386Z,7.03
2022-07-28T03:41:59.315Z,8.15
2022-07-28T03:42:22.942Z,6.78
2022-07-28T03:42:47.655Z,7.70
2022-07-28T03:43:11.739Z,8.13
2022-07-28T03:43:34.397Z,8.30
2022-07-28T03:43:57.150Z,8.60
2022-07-28T03:44:27.878Z,7.03
2022-07-28T03:44:51.386Z,9.13
2022-07-28T03:45:13.941Z,8.63
2022-07-28T03:45:36.184Z,8.88
2022-07-28T03:46:02.672Z,8.55
2022-07-28T03:46:26.981Z,8.13
2022-07-28T03:46:48.812Z,8.32
2022-07-28T03:47:10.921Z,7.57
2022-07-28T03:47:32.950Z,8.88
2022-07-28T03:47:56.665Z,7.80
2022-07-28T03:48:18.656Z,7.45
2022-07-28T03:48:40.714Z,7.50
2022-07-28T03:49:07.425Z,8.68
2022-07-28T03:49:29.206Z,7.53
2022-07-28T03:49:51.588Z,7.72
2022-07-28T03:50:13.357Z,7.40
2022-07-28T03:50:35.438Z,8.40
2022-07-28T03:50:57.691Z,7.95
2022-07-28T03:51:19.535Z,8.07
2022-07-28T03:51:41.524Z,6.28
2022-07-28T03:52:03.335Z,7.57
2022-07-28T03:52:26.048Z,8.73
2022-07-28T03:52:48.108Z,6.75
2022-07-28T03:53:21.223Z,7.88
2022-07-28T03:53:43.444Z,5.68
2022-07-28T03:54:05.292Z,6.78
2022-07-28T03:54:27.080Z,6.00
2022-07-28T03:54:48.995Z,6.25
2022-07-28T03:55:12.282Z,7.13
2022-07-28T03:55:34.037Z,8.45
2022-07-28T03:55:56.795Z,7.50
2022-07-28T03:56:19.494Z,6.90
2022-07-28T03:56:41.234Z,7.07
2022-07-28T03:57:03.245Z,9.55
2022-07-28T03:57:25.054Z,7.57
2022-07-28T03:57:47.064Z,6.60
2022-07-28T03:58:09.118Z,7.00
2022-07-28T03:58:31.333Z,8.57
2022-07-28T03:58:53.395Z,8.98
2022-07-28T03:59:16.078Z,6.70
2022-07-28T03:59:38.287Z,7.63
2022-07-28T04:00:00.171Z,6.93
2022-07-28T04:00:22.703Z,6.78
2022-07-28T04:00:44.511Z,6.97
2022-07-28T04:01:06.361Z,7.35
2022-07-28T04:01:28.301Z,5.95
2022-07-28T04:01:50.660Z,7.13
2022-07-28T04:02:12.538Z,6.63
2022-07-28T04:02:34.694Z,7.18
2022-07-28T04:02:56.686Z,6.75
2022-07-28T04:03:22.598Z,7.68
2022-07-28T04:04:01.811Z,6.10
2022-07-28T04:04:24.134Z,5.75
2022-07-28T04:04:45.939Z,6.07
2022-07-28T04:05:09.318Z,6.55
2022-07-28T04:05:31.091Z,6.82
2022-07-28T04:05:55.849Z,8.63
2022-07-28T04:06:17.675Z,8.48
2022-07-28T04:06:39.583Z,7.50
2022-07-28T04:07:01.467Z,7.25
2022-07-28T04:07:23.393Z,7.90
2022-07-28T04:07:46.190Z,6.40
2022-07-28T04:08:08.146Z,7.57
2022-07-28T04:08:30.449Z,8.67
2022-07-28T04:08:52.201Z,7.38
2022-07-28T04:09:15.924Z,8.05
2022-07-28T04:09:37.684Z,7.85
2022-07-28T04:09:59.466Z,6.78
2022-07-28T04:10:21.490Z,6.30
2022-07-28T04:10:43.286Z,6.47
2022-07-28T04:11:05.137Z,5.78
2022-07-28T04:11:26.969Z,6.65
2022-07-28T04:11:48.850Z,6.00
2022-07-28T04:12:11.078Z,7.78
2022-07-28T04:13:10.800Z,6.95
2022-07-28T04:13:32.607Z,8.23
2022-07-28T04:13:55.630Z,8.43
2022-07-28T04:14:18.253Z,6.60
2022-07-28T04:14:40.491Z,6.43
2022-07-28T04:15:02.265Z,6.65
2022-07-28T04:15:25.340Z,7.78
2022-07-28T04:15:47.249Z,8.40
2022-07-28T04:16:09.276Z,7.80
2022-07-28T04:16:31.519Z,7.28
2022-07-28T04:16:53.483Z,7.55
2022-07-28T04:17:15.329Z,6.72
2022-07-28T04:17:37.677Z,7.72
2022-07-28T04:18:00.400Z,7.93
2022-07-28T04:18:22.235Z,5.65
2022-07-28T04:18:44.026Z,5.68
2022-07-28T04:19:05.809Z,7.18
2022-07-28T04:19:28.621Z,7.07
2022-07-28T04:19:50.421Z,6.38
2022-07-28T04:20:13.658Z,8.38
2022-07-28T04:20:35.539Z,5.50
2022-07-28T04:20:57.932Z,6.45
2022-07-28T04:21:19.787Z,8.68
2022-07-28T04:21:41.993Z,9.00
2022-07-28T04:22:03.880Z,7.47
2022-07-28T04:22:25.707Z,9.07
2022-07-28T04:22:48.674Z,9.77
2022-07-28T04:23:10.617Z,5.93
2022-07-28T04:23:32.795Z,6.88
2022-07-28T04:23:59.842Z,6.90
2022-07-28T04:24:23.678Z,6.68
2022-07-28T04:24:45.484Z,9.05
2022-07-28T04:25:08.192Z,7.63
2022-07-28T04:25:30.048Z,7.20
2022-07-28T04:25:51.929Z,7.13
2022-07-28T04:26:13.686Z,7.22
2022-07-28T04:26:35.436Z,6.47
2022-07-28T04:26:57.281Z,6.60
2022-07-28T04:27:19.107Z,6.65
2022-07-28T04:27:41.813Z,6.07
2022-07-28T04:28:05.495Z,6.10
2022-07-28T04:28:27.509Z,6.35
2022-07-28T04:28:49.347Z,7.80
2022-07-28T04:29:11.234Z,7.93
2022-07-28T04:29:33.361Z,6.20
2022-07-28T04:29:55.470Z,7.28
2022-07-28T04:30:20.854Z,5.95
2022-07-28T04:30:44.395Z,5.75
2022-07-28T04:31:07.032Z,8.43
2022-07-28T04:31:28.951Z,6.82
2022-07-28T04:31:50.717Z,6.95
2022-07-28T04:32:12.466Z,6.95
2022-07-28T04:32:34.577Z,7.85
2022-07-28T04:32:56.727Z,7.57
2022-07-28T04:33:19.493Z,6.75
2022-07-28T04:33:42.856Z,6.13
2022-07-28T04:34:04.914Z,6.05
2022-07-28T04:34:26.689Z,6.40
2022-07-28T04:34:49.776Z,7.07
2022-07-28T04:35:17.129Z,7.03
2022-07-28T04:35:39.843Z,7.18
2022-07-28T04:36:02.169Z,6.57
2022-07-28T04:36:23.951Z,6.57
2022-07-28T04:36:45.733Z,4.82
2022-07-28T04:37:09.025Z,7.03
2022-07-28T04:37:32.399Z,6.15
2022-07-28T04:38:00.976Z,5.72
2022-07-28T04:38:22.927Z,6.63
2022-07-28T04:38:44.728Z,6.18
2022-07-28T04:39:06.536Z,5.55
2022-07-28T04:39:28.346Z,5.35
2022-07-28T04:39:51.025Z,7.28
2022-07-28T04:40:13.705Z,6.63
2022-07-28T04:40:35.592Z,6.18
2022-07-28T04:40:57.616Z,6.28
2022-07-28T04:41:19.526Z,5.53
2022-07-28T04:41:41.851Z,6.32
2022-07-28T04:42:03.732Z,5.00
2022-07-28T04:42:25.759Z,5.53
2022-07-28T04:42:47.601Z,6.15
2022-07-28T04:43:10.425Z,6.78
2022-07-28T04:43:32.749Z,5.10
2022-07-28T04:43:54.997Z,6.88
2022-07-28T04:44:17.918Z,7.10
2022-07-28T04:44:42.455Z,5.55
2022-07-28T04:45:05.707Z,9.88
2022-07-28T04:45:27.441Z,7.40
2022-07-28T04:45:54.055Z,6.25
2022-07-28T04:46:17.828Z,6.43
2022-07-28T04:46:39.725Z,6.25
2022-07-28T04:47:01.976Z,5.40
2022-07-28T04:47:29.536Z,5.95
2022-07-28T04:47:51.903Z,6.18
2022-07-28T04:48:14.180Z,5.40
2022-07-28T04:48:38.797Z,4.28
2022-07-28T04:49:00.670Z,5.07
2022-07-28T04:49:22.794Z,5.05
2022-07-28T04:49:46.212Z,5.55
2022-07-28T04:50:09.887Z,6.45
2022-07-28T04:50:35.503Z,8.55
2022-07-28T04:50:57.616Z,7.30
2022-07-28T04:51:19.754Z,7.90
2022-07-28T04:51:41.603Z,8.65
2022-07-28T04:52:03.482Z,7.20
2022-07-28T04:52:27.364Z,5.93
2022-07-28T04:52:50.584Z,6.78
2022-07-28T04:53:12.806Z,6.55
2022-07-28T04:53:34.653Z,6.85
2022-07-28T04:53:56.473Z,5.90
2022-07-28T04:54:23.087Z,5.82
2022-07-28T04:54:48.567Z,7.55
2022-07-28T04:55:10.675Z,6.65
2022-07-28T04:55:32.761Z,5.15
2022-07-28T04:55:57.305Z,6.85
2022-07-28T04:56:19.672Z,7.28
2022-07-28T04:56:41.742Z,7.53
2022-07-28T04:57:07.550Z,7.35
2022-07-28T04:57:32.469Z,6.00
2022-07-28T04:57:54.876Z,6.95
2022-07-28T04:58:18.431Z,6.63
2022-07-28T04:58:41.311Z,5.90
2022-07-28T04:59:04.942Z,6.85
2022-07-28T04:59:27.727Z,5.85
2022-07-28T04:59:54.073Z,7.45
2022-07-28T05:00:18.764Z,7.80
2022-07-28T05:00:40.642Z,6.57
2022-07-28T05:01:02.495Z,6.93
2022-07-28T05:01:24.703Z,7.13
2022-07-28T05:01:46.567Z,6.28
2022-07-28T05:02:08.960Z,6.25
2022-07-28T05:02:30.823Z,6.50
2022-07-28T05:02:53.092Z,6.95
2022-07-28T05:03:14.995Z,5.80
2022-07-28T05:03:36.801Z,6.55
2022-07-28T05:03:58.658Z,11.40
2022-07-28T05:04:21.918Z,10.18
2022-07-28T05:04:44.232Z,7.05
2022-07-28T05:05:06.735Z,6.32
2022-07-28T05:05:29.372Z,5.10
2022-07-28T05:05:55.322Z,6.47
2022-07-28T05:06:18.583Z,6.15
2022-07-28T05:06:40.788Z,6.90
2022-07-28T05:07:08.016Z,7.05
2022-07-28T05:07:34.643Z,5.35
2022-07-28T05:07:56.881Z,5.57
2022-07-28T05:08:18.628Z,7.75
2022-07-28T05:08:40.389Z,7.32
2022-07-28T05:09:03.075Z,6.57
2022-07-28T05:09:26.489Z,7.00
2022-07-28T05:09:48.543Z,5.75
2022-07-28T05:10:12.409Z,5.22
2022-07-28T05:10:34.340Z,4.88
2022-07-28T05:10:56.535Z,5.97
2022-07-28T05:11:18.689Z,5.25
2022-07-28T05:11:42.342Z,6.88
2022-07-28T05:12:05.771Z,5.40
2022-07-28T05:12:27.589Z,6.05
2022-07-28T05:12:49.392Z,6.05
2022-07-28T05:13:11.158Z,7.35
2022-07-28T05:13:34.497Z,6.53
2022-07-28T05:13:56.398Z,6.97
2022-07-28T05:14:18.421Z,6.87
2022-07-28T05:14:40.319Z,7.80
2022-07-28T05:15:02.160Z,7.90
2022-07-28T05:15:23.949Z,4.88
2022-07-28T05:15:46.338Z,5.00
2022-07-28T05:16:08.704Z,5.60
2022-07-28T05:16:30.653Z,5.28
2022-07-28T05:16:53.620Z,5.95
2022-07-28T05:17:15.585Z,5.28
2022-07-28T05:17:37.473Z,4.32
2022-07-28T05:17:59.314Z,5.32
2022-07-28T05:18:21.346Z,6.22
2022-07-28T05:18:43.124Z,4.78
2022-07-28T05:19:05.263Z,7.00
2022-07-28T05:19:27.095Z,7.40
2022-07-28T05:19:49.435Z,7.35
2022-07-28T05:20:13.511Z,5.25
2022-07-28T05:20:35.558Z,5.65
2022-07-28T05:20:57.502Z,4.63
2022-07-28T05:21:22.384Z,5.38
2022-07-28T05:21:44.640Z,6.53
2022-07-28T05:22:06.414Z,6.40
2022-07-28T05:22:28.872Z,4.75
2022-07-28T05:22:53.844Z,5.78
2022-07-28T05:23:17.570Z,6.35
2022-07-28T05:23:41.322Z,5.43
2022-07-28T05:24:07.937Z,7.63
2022-07-28T05:24:30.321Z,5.38
2022-07-28T05:24:52.169Z,6.07
2022-07-28T05:25:18.846Z,4.22
2022-07-28T05:25:40.612Z,5.03
2022-07-28T05:26:03.707Z,5.07
2022-07-28T05:26:26.832Z,6.20
2022-07-28T05:26:48.629Z,5.85
2022-07-28T05:27:12.168Z,5.28
2022-07-28T05:27:33.949Z,5.55
2022-07-28T05:27:56.284Z,5.75
2022-07-28T05:28:18.233Z,4.93
2022-07-28T05:28:40.367Z,6.60
2022-07-28T05:29:02.408Z,7.45
2022-07-28T05:29:24.657Z,6.07